Honolulu, HI (96801)

5:12 PM HST on September 24, 2016 (GMT -1000)
Nuuanu | | Change Station

Elev 374 ft 21.33 °N, 157.84 °W | Updated 8 seconds ago

Scattered Clouds
Scattered Clouds
80.5 °F
Feels Like 83 °F
N
8.0
Wind Variable Wind from East

Today
High -- | Low -- °F
--% Chance of Precip.
Yesterday
High -- | Low -- °F
Precip. -- in
Pressure 29.96 in
Visibility 10.0 miles
Clouds Few 2700 ft
Scattered Clouds 6500 ft
Heat Index 83 °F
Dew Point 67 °F
Humidity 65%
Rainfall 0.00 in
Snow Depth Not available.
6:20 AM 6:24 PM
Waning Crescent, 32% visible
METAR PHNL 250253Z 04012G19KT 10SM FEW027 SCT065 29/19 A2996 RMK AO2 SLP146 T02890194 53001
Pressure 29.96 in
Visibility 10.0 miles
Clouds Few 2700 ft
Scattered Clouds 6500 ft
Heat Index 83 °F
Dew Point 67 °F
Humidity 65%
Rainfall 0.00 in
Snow Depth Not available.
6:20 AM 6:24 PM
Waning Crescent, 32% visible
METAR PHNL 250253Z 04012G19KT 10SM FEW027 SCT065 29/19 A2996 RMK AO2 SLP146 T02890194 53001

10-Day Weather Forecast

Almanac

Astronomy

Sep. 24, 2016 Rise Set
Actual Time
Civil Twilight
Nautical Twilight
Astronomical Twilight
Moon
Length of Visible Light
Length of Day
Tomorrow will be .
, % of the Moon is Illuminated

Today's Extremes

State Highs State Lows

Community

WunderPhotos

Upload Photos

1,941,534 photos uploaded!

WunderBlog® & News

Nearby

Air Quality

  Air Quality AQ Index Pollutant
Not available.

Snow Depth

Station Depth Elevation

Earthquake Activity

City Distance Mag. Time & Date
Minimum magnitude displayed is 2.5.

Coastal Water Temperatures

Place Temperature

Stations

Nearby Weather Stations

Station Location Temp. Windchill Dew Point Humidity Wind Precip. Elev Updated Type
                   

Watches & Warnings

There are currently no watches in effect.